Time;durP1;ratioP1;P1;durP2;ratioP2;P2;SDS_P1;SDS_P2;PMS_P1;PMS_P2;Temp;Humidity;BMP_temperature;BMP_pressure;BME280_temperature;BME280_humidity;BME280_pressure;Samples;Min_cycle;Max_cycle;Signal;HPM_P1;HPM_P2
2021/01/06 00:02:23;;;;;;;13.77;9.90;;;;;;;1.81;93.26;100377.19;5061683;28;20488;-70
2021/01/06 00:04:49;;;;;;;14.73;10.07;;;;;;;1.81;93.25;100375.38;5063368;28;21027;-70
2021/01/06 00:07:15;;;;;;;13.87;9.40;;;;;;;1.76;93.30;100376.56;5061903;28;20508;-71
2021/01/06 00:09:43;;;;;;;14.87;8.60;;;;;;;1.79;92.56;100379.88;5063386;28;21000;-70
2021/01/06 00:12:09;;;;;;;11.47;8.27;;;;;;;1.77;92.71;100373.84;5061639;28;20513;-71
2021/01/06 00:14:35;;;;;;;13.03;8.67;;;;;;;1.79;92.83;100377.25;5063135;28;20476;-71
2021/01/06 00:17:02;;;;;;;12.53;8.50;;;;;;;1.76;92.82;100373.94;5062149;28;20515;-70
2021/01/06 00:19:28;;;;;;;10.00;7.13;;;;;;;1.70;93.10;100375.09;5063475;28;20496;-70
2021/01/06 00:21:54;;;;;;;11.33;8.20;;;;;;;1.73;93.24;100376.72;5061811;28;20484;-70
2021/01/06 00:24:20;;;;;;;11.90;8.67;;;;;;;1.66;93.42;100373.56;5063376;28;20485;-71
2021/01/06 00:26:47;;;;;;;14.50;10.30;;;;;;;1.68;93.55;100371.69;5061901;28;20476;-70
2021/01/06 00:29:14;;;;;;;12.63;8.40;;;;;;;1.67;93.36;100370.00;5062566;28;20456;-70
2021/01/06 00:31:41;;;;;;;12.23;9.37;;;;;;;1.63;93.66;100371.94;5061401;28;20495;-70
2021/01/06 00:34:08;;;;;;;13.00;9.17;;;;;;;1.64;93.81;100367.50;5063107;28;20476;-70
2021/01/06 00:36:34;;;;;;;12.63;8.37;;;;;;;1.62;93.31;100362.31;5061847;28;20473;-70
2021/01/06 00:39:00;;;;;;;13.47;8.80;;;;;;;1.58;93.63;100367.81;5063210;28;20459;-70
2021/01/06 00:41:28;;;;;;;15.20;7.90;;;;;;;1.62;93.76;100361.47;5061727;28;20476;-70
2021/01/06 00:43:55;;;;;;;11.97;9.37;;;;;;;1.60;93.35;100360.72;5062585;28;20495;-70
2021/01/06 00:46:22;;;;;;;12.43;9.10;;;;;;;1.61;93.72;100357.13;5061372;28;20483;-70
2021/01/06 00:48:48;;;;;;;12.07;9.40;;;;;;;1.60;93.76;100352.81;5062677;28;20449;-71
2021/01/06 00:51:14;;;;;;;13.90;9.40;;;;;;;1.64;93.64;100352.53;5061433;28;20481;-71
2021/01/06 00:53:41;;;;;;;13.40;9.23;;;;;;;1.62;93.79;100356.22;5062660;28;20503;-71
2021/01/06 00:56:07;;;;;;;19.80;9.90;;;;;;;1.58;93.23;100359.91;5061321;28;20496;-71
2021/01/06 00:58:33;;;;;;;15.80;9.77;;;;;;;1.61;92.99;100365.88;5062257;28;20457;-71
2021/01/06 01:01:00;;;;;;;18.50;8.93;;;;;;;1.60;92.92;100360.72;5060370;28;21068;-70
2021/01/06 01:03:26;;;;;;;14.30;9.60;;;;;;;1.60;92.86;100351.03;5062634;28;20523;-70
2021/01/06 01:05:52;;;;;;;16.40;9.30;;;;;;;1.63;92.11;100358.75;5061544;28;20473;-71
2021/01/06 01:08:18;;;;;;;12.40;8.60;;;;;;;1.63;92.61;100364.03;5062659;28;20471;-70
2021/01/06 01:10:46;;;;;;;13.40;9.33;;;;;;;1.65;92.67;100354.25;5060503;28;20480;-71
2021/01/06 01:13:14;;;;;;;12.80;9.17;;;;;;;1.72;92.47;100361.81;5062493;28;20481;-71
2021/01/06 01:15:41;;;;;;;13.77;9.30;;;;;;;1.64;92.53;100362.25;5060820;28;20501;-71
2021/01/06 01:18:13;;;;;;;13.00;8.30;;;;;;;1.63;92.23;100361.41;5062776;28;20456;-71
2021/01/06 01:20:43;;;;;;;10.90;8.03;;;;;;;1.55;92.17;100360.09;5060864;28;20464;-71
2021/01/06 01:23:09;;;;;;;11.30;8.27;;;;;;;1.55;91.56;100353.03;5062432;28;20471;-71
2021/01/06 01:25:35;;;;;;;10.73;8.33;;;;;;;1.61;91.85;100362.41;5061050;28;20517;-70
2021/01/06 01:28:01;;;;;;;10.03;7.80;;;;;;;1.56;91.83;100359.16;5062108;28;20441;-71
2021/01/06 01:30:28;;;;;;;13.33;8.03;;;;;;;1.55;91.65;100352.19;5059885;28;21045;-71
2021/01/06 01:32:54;;;;;;;10.67;7.70;;;;;;;1.55;91.05;100350.41;5062270;28;20449;-70
2021/01/06 01:35:24;;;;;;;12.43;8.03;;;;;;;1.56;91.44;100357.34;5061224;28;20457;-71
2021/01/06 01:37:50;;;;;;;9.53;7.27;;;;;;;1.55;91.44;100355.69;5061931;28;20954;-71
2021/01/06 01:40:20;;;;;;;12.00;8.00;;;;;;;1.54;91.04;100364.50;5060590;28;20460;-71
2021/01/06 01:42:46;;;;;;;15.23;7.40;;;;;;;1.54;91.19;100361.03;5061782;28;20491;-71
2021/01/06 01:45:16;;;;;;;10.73;7.53;;;;;;;1.62;91.05;100367.59;5060414;28;20467;-71
2021/01/06 01:47:48;;;;;;;10.10;5.90;;;;;;;1.47;90.99;100360.47;5062302;28;20445;-71
2021/01/06 01:50:16;;;;;;;9.50;6.40;;;;;;;1.51;90.42;100356.75;5060661;28;20488;-70
2021/01/06 01:52:46;;;;;;;9.23;6.73;;;;;;;1.44;90.75;100355.38;5062409;28;20428;-71
2021/01/06 01:55:14;;;;;;;8.23;6.77;;;;;;;1.44;90.66;100348.34;5060476;28;20502;-70
2021/01/06 01:57:43;;;;;;;9.60;6.83;;;;;;;1.44;90.35;100352.72;5061064;28;20429;-71
2021/01/06 02:00:12;;;;;;;8.03;6.50;;;;;;;1.44;90.85;100350.09;5059937;28;20456;-71
2021/01/06 02:02:50;;;;;;;7.07;6.37;;;;;;;1.45;91.04;100349.19;5065547;28;20433;-71
2021/01/06 02:05:18;;;;;;;9.70;6.70;;;;;;;1.42;91.15;100344.91;5064106;28;20463;-71
2021/01/06 02:07:52;;;;;;;9.40;6.93;;;;;;;1.44;91.22;100336.94;5065618;28;20441;-71
2021/01/06 02:10:21;;;;;;;10.47;6.40;;;;;;;1.49;90.81;100338.41;5064057;28;20461;-71
2021/01/06 02:12:49;;;;;;;8.23;6.63;;;;;;;1.43;90.63;100336.09;5065516;28;20441;-71
2021/01/06 02:15:22;;;;;;;7.80;6.40;;;;;;;1.48;90.59;100328.78;5063341;28;20492;-71
2021/01/06 02:17:48;;;;;;;9.27;6.93;;;;;;;1.43;90.91;100330.81;5065999;28;20444;-71
2021/01/06 02:20:18;;;;;;;8.30;5.70;;;;;;;1.50;90.73;100329.56;5064162;28;20457;-70
2021/01/06 02:22:46;;;;;;;7.50;6.47;;;;;;;1.44;91.05;100324.63;5065895;28;20464;-71
2021/01/06 02:25:13;;;;;;;8.70;6.27;;;;;;;1.41;91.18;100331.84;5063923;28;20534;-71
2021/01/06 02:27:39;;;;;;;8.53;6.47;;;;;;;1.44;91.06;100331.66;5065397;28;20456;-70
2021/01/06 02:30:07;;;;;;;9.00;6.27;;;;;;;1.46;90.87;100328.03;5063288;28;20456;-70
2021/01/06 02:32:33;;;;;;;9.37;7.30;;;;;;;1.43;90.95;100319.44;5065446;28;20461;-71
2021/01/06 02:34:59;;;;;;;12.97;8.23;;;;;;;1.42;91.07;100323.00;5065033;28;20483;-71
2021/01/06 02:37:27;;;;;;;9.50;7.80;;;;;;;1.44;91.05;100322.00;5063447;28;20480;-71
2021/01/06 02:39:54;;;;;;;12.63;9.30;;;;;;;1.43;90.88;100332.59;5065018;28;20463;-71
2021/01/06 02:42:20;;;;;;;13.77;8.53;;;;;;;1.43;91.30;100325.53;5063676;28;20488;-70
2021/01/06 02:44:47;;;;;;;14.57;9.37;;;;;;;1.41;91.31;100324.78;5064477;28;20512;-70
2021/01/06 02:47:14;;;;;;;13.17;9.43;;;;;;;1.38;91.58;100322.31;5064104;28;20847;-71
2021/01/06 02:49:40;;;;;;;11.17;9.67;;;;;;;1.36;91.71;100318.91;5064953;28;20507;-70
2021/01/06 02:52:12;;;;;;;13.70;10.60;;;;;;;1.34;91.35;100319.91;5063556;28;20481;-71
2021/01/06 02:54:41;;;;;;;11.90;9.83;;;;;;;1.41;91.47;100318.66;5065110;28;20473;-71
2021/01/06 02:57:08;;;;;;;15.40;11.47;;;;;;;1.35;90.97;100314.56;5063115;28;20465;-71
2021/01/06 02:59:37;;;;;;;16.00;11.20;;;;;;;1.36;91.18;100313.63;5064390;28;20493;-71
2021/01/06 03:02:04;;;;;;;12.00;9.90;;;;;;;1.33;91.33;100315.56;5063230;28;21047;-71
2021/01/06 03:04:34;;;;;;;13.73;10.80;;;;;;;1.39;91.26;100313.47;5064831;28;20521;-71
2021/01/06 03:07:03;;;;;;;15.07;11.33;;;;;;;1.34;91.70;100318.13;5063275;28;20619;-71
2021/01/06 03:09:32;;;;;;;14.57;11.03;;;;;;;1.33;91.46;100310.31;5064512;28;20460;-71
2021/01/06 03:12:01;;;;;;;14.53;11.80;;;;;;;1.38;91.33;100311.75;5063203;28;20587;-71
2021/01/06 03:14:29;;;;;;;13.10;11.53;;;;;;;1.36;91.17;100320.69;5061694;28;20460;-72
2021/01/06 03:16:57;;;;;;;14.57;11.50;;;;;;;1.37;91.04;100310.09;5062717;28;20516;-71
2021/01/06 03:19:25;;;;;;;14.83;10.97;;;;;;;1.41;91.25;100311.59;5064342;28;20483;-71
2021/01/06 03:21:52;;;;;;;15.20;11.37;;;;;;;1.35;91.41;100311.91;5063446;28;20503;-71
2021/01/06 03:24:21;;;;;;;14.00;10.93;;;;;;;1.28;91.56;100313.19;5064321;28;20542;-71
2021/01/06 03:26:47;;;;;;;18.70;12.27;;;;;;;1.39;90.83;100313.47;5063290;28;20468;-71
2021/01/06 03:29:14;;;;;;;17.33;12.90;;;;;;;1.37;91.15;100315.34;5063916;28;20485;-71
2021/01/06 03:31:43;;;;;;;18.00;12.80;;;;;;;1.40;90.81;100309.91;5062401;28;20476;-71
2021/01/06 03:34:18;;;;;;;16.00;13.07;;;;;;;1.45;90.71;100305.22;5064422;28;20457;-71
2021/01/06 03:36:47;;;;;;;16.77;12.57;;;;;;;1.34;91.14;100304.09;5062711;28;20502;-71
2021/01/06 03:39:17;;;;;;;17.57;13.90;;;;;;;1.28;91.16;100300.00;5064122;28;20465;-71
2021/01/06 03:41:44;;;;;;;20.67;13.73;;;;;;;1.30;90.96;100295.50;5062425;28;20481;-71
2021/01/06 03:44:12;;;;;;;17.43;12.47;;;;;;;1.21;91.56;100301.25;5063913;28;20512;-71
2021/01/06 03:46:44;;;;;;;17.80;13.93;;;;;;;1.34;91.36;100306.72;5062222;28;20504;-71
2021/01/06 03:49:18;;;;;;;17.43;12.43;;;;;;;1.20;91.71;100295.16;5063979;28;20900;-71
2021/01/06 03:51:52;;;;;;;15.27;11.90;;;;;;;1.09;92.14;100300.09;5062320;28;20529;-71
2021/01/06 03:54:23;;;;;;;15.70;12.10;;;;;;;1.08;92.48;100296.63;5064106;28;20448;-71
2021/01/06 03:56:51;;;;;;;15.03;12.07;;;;;;;1.08;92.63;100294.00;5062246;28;20496;-71
2021/01/06 03:59:20;;;;;;;16.00;12.77;;;;;;;1.06;92.73;100290.59;5062848;28;20471;-71
2021/01/06 04:01:57;;;;;;;15.90;13.00;;;;;;;1.06;92.90;100297.63;5061672;28;20511;-71
2021/01/06 04:04:28;;;;;;;19.90;13.27;;;;;;;1.04;92.94;100284.56;5063680;28;20515;-71
2021/01/06 04:06:55;;;;;;;15.10;12.10;;;;;;;0.98;92.62;100290.13;5062190;28;20484;-71
2021/01/06 04:09:31;;;;;;;16.33;11.87;;;;;;;0.94;92.99;100286.81;5063333;28;20453;-71
2021/01/06 04:12:03;;;;;;;16.67;13.40;;;;;;;0.92;92.84;100287.78;5062249;28;20524;-71
2021/01/06 04:14:30;;;;;;;18.10;12.53;;;;;;;1.06;92.33;100285.34;5050261;28;21015;-71
2021/01/06 04:17:03;;;;;;;16.63;11.07;;;;;;;0.98;92.90;100286.66;5061778;28;20538;-71
2021/01/06 04:19:29;;;;;;;17.03;12.53;;;;;;;0.93;92.95;100278.97;5063326;28;20444;-71
2021/01/06 04:21:55;;;;;;;18.07;12.77;;;;;;;0.94;92.94;100278.06;5062288;28;21150;-71
2021/01/06 04:24:21;;;;;;;17.80;12.60;;;;;;;0.91;92.85;100276.44;5062541;28;20520;-71
2021/01/06 04:26:47;;;;;;;17.30;11.77;;;;;;;0.90;92.82;100273.88;5062134;28;20553;-71
2021/01/06 04:29:14;;;;;;;17.30;13.90;;;;;;;0.87;92.98;100274.06;5062807;28;20473;-72
2021/01/06 04:31:40;;;;;;;16.90;12.33;;;;;;;0.86;93.29;100278.44;5060959;28;20507;-70
2021/01/06 04:34:07;;;;;;;17.77;13.27;;;;;;;0.87;93.55;100271.41;5063175;28;20472;-71
2021/01/06 04:36:33;;;;;;;19.60;13.20;;;;;;;0.94;93.45;100275.44;5061783;28;20497;-71
2021/01/06 04:39:01;;;;;;;16.23;12.50;;;;;;;0.89;93.21;100269.56;5063225;28;20516;-71
2021/01/06 04:41:39;;;;;;;17.63;13.07;;;;;;;0.81;93.63;100263.81;5061775;28;20899;-70
2021/01/06 04:44:11;;;;;;;17.17;12.40;;;;;;;0.79;93.30;100271.78;5062383;28;20519;-71
2021/01/06 04:46:54;;;;;;;15.33;12.07;;;;;;;0.81;93.60;100262.03;5061270;28;20483;-71
2021/01/06 04:49:26;;;;;;;20.43;12.27;;;;;;;0.78;93.43;100267.44;5043462;28;20426;-71
2021/01/06 04:51:59;;;;;;;18.00;12.77;;;;;;;0.82;93.10;100261.13;5045791;28;20516;-71
2021/01/06 04:54:37;;;;;;;19.20;13.07;;;;;;;0.71;93.56;100261.66;5062766;28;20899;-71
2021/01/06 04:57:10;;;;;;;18.33;12.50;;;;;;;0.77;93.49;100259.66;5061297;28;20574;-70
2021/01/06 04:59:49;;;;;;;17.90;13.33;;;;;;;0.72;93.59;100262.50;5062760;28;20507;-71
2021/01/06 05:02:27;;;;;;;20.20;13.40;;;;;;;0.71;93.68;100259.03;5060534;28;20534;-70
2021/01/06 05:05:37;;;;;;;17.40;11.90;;;;;;;0.74;93.52;100258.84;5062683;28;20577;-71
2021/01/06 05:08:13;;;;;;;17.87;13.00;;;;;;;0.71;92.98;100256.41;4961444;29;20492;-71
2021/01/06 05:10:42;;;;;;;18.00;12.00;;;;;;;0.75;93.36;100254.47;4964942;28;20479;-70
2021/01/06 05:13:17;;;;;;;18.57;13.80;;;;;;;0.77;93.20;100257.03;4962180;29;20473;-70
2021/01/06 05:15:45;;;;;;;19.63;13.37;;;;;;;0.73;93.74;100262.44;4959889;28;21099;-70
2021/01/06 05:18:11;;;;;;;19.27;12.60;;;;;;;0.77;93.30;100262.28;4965155;28;20478;-70
2021/01/06 05:20:38;;;;;;;23.63;13.07;;;;;;;0.81;93.13;100262.03;4965320;28;20500;-70
2021/01/06 05:23:06;;;;;;;15.60;11.93;;;;;;;0.84;93.00;100255.78;4959744;28;20516;-70
2021/01/06 05:25:34;;;;;;;18.30;13.00;;;;;;;0.93;92.81;100252.66;4975447;28;20500;-71
2021/01/06 05:28:01;;;;;;;16.80;12.50;;;;;;;0.88;92.29;100259.94;4971943;28;20445;-72
2021/01/06 05:30:29;;;;;;;15.83;12.77;;;;;;;0.85;92.53;100254.81;4955498;28;20504;-72
2021/01/06 05:32:56;;;;;;;18.23;13.30;;;;;;;0.82;92.39;100252.38;4965087;28;20477;-72
2021/01/06 05:35:25;;;;;;;20.90;11.93;;;;;;;0.87;92.42;100245.94;4960662;28;21029;-72
2021/01/06 05:37:55;;;;;;;17.30;12.60;;;;;;;0.93;91.94;100252.66;4971244;28;20922;-72
2021/01/06 05:40:21;;;;;;;19.93;12.40;;;;;;;0.87;92.38;100253.84;4963414;28;20494;-73
2021/01/06 05:42:53;;;;;;;21.60;13.67;;;;;;;0.91;91.55;100249.25;4978717;28;20513;-72
2021/01/06 05:45:21;;;;;;;20.20;13.30;;;;;;;0.86;91.80;100252.13;5022819;28;20528;-72
2021/01/06 05:47:51;;;;;;;17.70;13.10;;;;;;;0.87;91.73;100243.31;5032416;28;20450;-71
2021/01/06 05:50:21;;;;;;;19.73;13.10;;;;;;;0.87;91.58;100245.94;5023176;28;20447;-72
2021/01/06 05:52:56;;;;;;;17.47;12.73;;;;;;;0.90;91.42;100237.91;5038905;28;20880;-73
2021/01/06 05:55:24;;;;;;;16.40;11.90;;;;;;;0.85;91.68;100236.41;5037847;28;20477;-70
2021/01/06 05:57:59;;;;;;;21.73;12.63;;;;;;;0.88;91.62;100231.00;5033865;28;20442;-71
2021/01/06 06:00:45;;;;;;;16.23;12.23;;;;;;;0.85;91.37;100239.91;5026628;28;20493;-71
2021/01/06 06:03:35;;;;;;;17.53;13.53;;;;;;;0.91;91.37;100233.47;5025540;28;20438;-71
2021/01/06 06:06:05;;;;;;;18.70;13.40;;;;;;;0.93;91.46;100237.72;5022511;28;20504;-71
2021/01/06 06:08:52;;;;;;;16.10;12.10;;;;;;;0.87;91.19;100234.56;5035534;28;20442;-71
2021/01/06 06:11:38;;;;;;;22.83;13.70;;;;;;;0.94;90.81;100243.84;5040479;28;20494;-71
2021/01/06 06:14:35;;;;;;;16.73;11.93;;;;;;;0.94;90.54;100230.69;5064091;28;20961;-72
2021/01/06 06:17:06;;;;;;;20.30;14.20;;;;;;;0.97;90.94;100237.56;5062567;28;20484;-71
2021/01/06 06:19:55;;;;;;;19.60;14.20;;;;;;;0.95;90.96;100229.75;5063814;28;20472;-72
2021/01/06 06:22:25;;;;;;;18.07;13.87;;;;;;;0.97;90.41;100219.97;5062317;28;20469;-72
2021/01/06 06:24:59;;;;;;;18.80;14.63;;;;;;;0.86;90.23;100227.59;5064340;28;20492;-71
2021/01/06 06:28:12;;;;;;;24.80;14.80;;;;;;;0.81;90.74;100235.72;5062875;28;20579;-72
2021/01/06 06:30:51;;;;;;;19.70;14.30;;;;;;;0.75;90.74;100226.34;5046434;28;20480;-72
2021/01/06 06:33:21;;;;;;;15.60;11.83;;;;;;;0.84;90.56;100230.28;5062826;28;20520;-71
2021/01/06 06:35:49;;;;;;;21.30;15.17;;;;;;;0.72;90.19;100229.13;5060771;28;20508;-71
2021/01/06 06:38:16;;;;;;;15.10;12.80;;;;;;;0.70;90.45;100230.16;5063264;28;20906;-73
2021/01/06 06:40:56;;;;;;;21.80;14.13;;;;;;;0.72;90.70;100238.81;5062554;28;20547;-72
2021/01/06 06:43:29;;;;;;;21.23;14.20;;;;;;;0.69;90.63;100241.59;5064021;28;20441;-71
2021/01/06 06:46:16;;;;;;;20.97;13.83;;;;;;;0.62;90.43;100238.44;5062279;28;21041;-71
2021/01/06 06:48:54;;;;;;;19.97;13.73;;;;;;;0.61;90.75;100234.13;5064191;28;20441;-71
2021/01/06 06:51:23;;;;;;;18.50;14.97;;;;;;;0.94;91.57;100243.84;5061074;28;20484;-74
2021/01/06 06:53:54;;;;;;;24.53;14.80;;;;;;;1.36;87.97;100246.94;5064073;28;20460;-73
2021/01/06 06:56:30;;;;;;;16.80;12.60;;;;;;;2.06;91.70;100245.69;5061348;28;20556;-73
2021/01/06 06:58:59;;;;;;;21.30;15.53;;;;;;;1.87;85.79;100252.94;5062118;28;20535;-72
2021/01/06 07:01:32;;;;;;;18.43;13.53;;;;;;;2.01;86.69;100249.53;5061700;28;20484;-73
2021/01/06 07:04:02;;;;;;;18.47;13.17;;;;;;;1.42;86.67;100249.22;5063338;28;20489;-73
2021/01/06 07:06:28;;;;;;;16.20;13.07;;;;;;;1.13;87.90;100260.38;5062272;28;20476;-73
2021/01/06 07:08:57;;;;;;;19.73;12.80;;;;;;;1.00;88.16;100251.41;5061334;28;20497;-72
2021/01/06 07:11:26;;;;;;;17.20;12.47;;;;;;;0.86;88.90;100251.28;5053185;28;20579;-68
2021/01/06 07:14:03;;;;;;;16.17;11.43;;;;;;;0.83;89.54;100246.16;5055358;28;20449;-70
2021/01/06 07:16:33;;;;;;;16.50;11.53;;;;;;;0.87;89.00;100251.22;5061808;28;20494;-71
2021/01/06 07:19:16;;;;;;;15.20;12.20;;;;;;;0.82;88.79;100257.63;5063412;28;20441;-69
2021/01/06 07:21:42;;;;;;;15.77;12.03;;;;;;;0.78;89.22;100258.72;5060637;28;21262;-70
2021/01/06 07:24:16;;;;;;;13.50;11.30;;;;;;;0.70;88.97;100259.09;5062792;28;20508;-72
2021/01/06 07:26:45;;;;;;;13.70;10.90;;;;;;;0.77;88.74;100254.38;5049816;28;20476;-72
2021/01/06 07:29:13;;;;;;;13.60;11.00;;;;;;;0.73;89.20;100259.81;5062623;28;20453;-71
2021/01/06 07:31:42;;;;;;;14.50;10.80;;;;;;;0.67;89.61;100256.63;5061807;28;20468;-72
2021/01/06 07:34:18;;;;;;;17.87;12.20;;;;;;;0.65;89.59;100256.69;5063567;28;20449;-71
2021/01/06 07:36:47;;;;;;;15.00;10.73;;;;;;;0.63;89.81;100250.66;5060607;28;20507;-72
2021/01/06 07:39:20;;;;;;;16.03;12.10;;;;;;;0.75;89.45;100257.94;5063594;28;20581;-71
2021/01/06 07:41:46;;;;;;;17.10;11.43;;;;;;;0.67;89.87;100254.84;5061415;28;20532;-70
2021/01/06 07:44:21;;;;;;;15.57;11.87;;;;;;;0.58;90.09;100265.00;5061207;28;20531;-68
2021/01/06 07:46:55;;;;;;;13.27;11.07;;;;;;;0.66;90.17;100266.31;5060259;28;20480;-67
2021/01/06 07:49:43;;;;;;;15.50;10.93;;;;;;;0.75;89.03;100260.56;5062715;28;20441;-67
2021/01/06 07:52:39;;;;;;;16.57;11.73;;;;;;;0.65;89.56;100271.66;5060342;28;20476;-72
2021/01/06 07:55:19;;;;;;;18.30;11.57;;;;;;;0.59;89.65;100264.03;5054750;28;21028;-70
2021/01/06 07:57:49;;;;;;;15.27;11.33;;;;;;;0.65;89.75;100261.97;5060636;28;20457;-71
2021/01/06 08:00:22;;;;;;;14.73;11.37;;;;;;;0.58;89.37;100262.34;5053450;28;20464;-70
2021/01/06 08:02:56;;;;;;;15.40;11.17;;;;;;;0.54;90.03;100259.88;5062133;28;20936;-71
2021/01/06 08:05:25;;;;;;;14.70;11.53;;;;;;;0.54;89.44;100259.03;5059634;28;20492;-72
2021/01/06 08:08:06;;;;;;;14.17;11.43;;;;;;;0.51;89.80;100259.19;5061812;28;20746;-70
2021/01/06 08:10:33;;;;;;;12.60;10.53;;;;;;;0.44;90.24;100260.41;5059956;28;20484;-71
2021/01/06 08:13:29;;;;;;;14.63;11.27;;;;;;;0.54;90.15;100259.03;5061265;28;20449;-70
2021/01/06 08:16:11;;;;;;;15.50;11.70;;;;;;;0.58;89.81;100257.09;5057358;28;20484;-70
2021/01/06 08:19:04;;;;;;;13.57;10.70;;;;;;;0.72;88.99;100260.72;5061549;28;20449;-69
2021/01/06 08:21:32;;;;;;;16.60;10.70;;;;;;;0.66;89.13;100261.03;5054526;28;20505;-69
2021/01/06 08:24:10;;;;;;;14.40;10.53;;;;;;;0.63;88.89;100265.63;5061243;28;20530;-71
2021/01/06 08:26:46;;;;;;;14.97;9.97;;;;;;;0.56;89.37;100265.91;5060779;28;20535;-72
2021/01/06 08:29:16;;;;;;;12.87;9.97;;;;;;;0.56;89.53;100263.28;5060660;28;20452;-71
2021/01/06 08:31:43;;;;;;;15.13;10.70;;;;;;;0.55;89.69;100260.72;5058770;28;20476;-73
2021/01/06 08:34:20;;;;;;;13.23;10.23;;;;;;;0.52;89.28;100263.50;5061267;28;20513;-68
2021/01/06 08:36:53;;;;;;;15.67;10.93;;;;;;;0.53;89.89;100257.31;5059510;28;21101;-70
2021/01/06 08:39:23;;;;;;;16.07;11.03;;;;;;;0.51;90.10;100265.28;5044746;28;20457;-71
2021/01/06 08:41:49;;;;;;;14.57;10.60;;;;;;;0.53;89.77;100270.47;5056102;28;20480;-70
2021/01/06 08:44:31;;;;;;;15.23;10.87;;;;;;;0.70;89.65;100261.75;5059134;28;20500;-72
2021/01/06 08:46:58;;;;;;;17.87;11.53;;;;;;;0.83;89.16;100262.78;5056442;28;20485;-70
2021/01/06 08:49:29;;;;;;;16.33;11.10;;;;;;;0.84;88.88;100264.50;5057942;28;20476;-70
2021/01/06 08:51:57;;;;;;;16.73;11.20;;;;;;;0.99;88.98;100267.28;5056966;28;20484;-70
2021/01/06 08:54:31;;;;;;;12.67;10.20;;;;;;;0.92;88.72;100262.34;5060904;28;20461;-70
2021/01/06 08:57:04;;;;;;;15.20;11.70;;;;;;;0.94;88.90;100262.28;5059358;28;20486;-71
2021/01/06 08:59:36;;;;;;;16.50;11.50;;;;;;;0.98;88.64;100261.19;5060290;28;20460;-71
2021/01/06 09:02:03;;;;;;;16.83;11.00;;;;;;;1.13;88.43;100260.38;5057913;28;20986;-70
2021/01/06 09:04:37;;;;;;;15.67;11.70;;;;;;;1.00;87.43;100266.38;5060525;28;20487;-71
2021/01/06 09:07:17;;;;;;;15.57;10.40;;;;;;;1.04;88.22;100258.25;5057645;28;20996;-73
2021/01/06 09:09:57;;;;;;;14.07;10.83;;;;;;;0.95;87.96;100256.06;5059983;28;20453;-69
2021/01/06 09:12:30;;;;;;;15.97;11.27;;;;;;;1.00;87.78;100261.94;5054462;28;21048;-69
2021/01/06 09:14:57;;;;;;;14.80;11.23;;;;;;;0.98;87.67;100263.81;5059718;28;20460;-69
2021/01/06 09:17:29;;;;;;;13.63;10.17;;;;;;;1.22;87.59;100268.75;5058279;28;20480;-69
2021/01/06 09:20:01;;;;;;;16.47;10.87;;;;;;;1.25;87.13;100260.66;5059187;28;20457;-69
2021/01/06 09:22:27;;;;;;;12.30;10.23;;;;;;;1.12;86.80;100263.09;5054394;28;20473;-68
2021/01/06 09:24:54;;;;;;;13.13;10.50;;;;;;;1.25;86.71;100263.28;5053738;28;20484;-69
2021/01/06 09:27:29;;;;;;;13.60;9.70;;;;;;;1.34;86.74;100260.19;5056224;28;20493;-70
2021/01/06 09:29:56;;;;;;;13.20;10.33;;;;;;;1.32;86.90;100259.44;5047071;28;20476;-69
2021/01/06 09:32:26;;;;;;;13.10;10.03;;;;;;;1.18;86.74;100261.91;5044490;28;20485;-69
2021/01/06 09:34:57;;;;;;;11.80;9.00;;;;;;;1.11;86.73;100256.97;5059376;28;20797;-71
2021/01/06 09:37:26;;;;;;;14.90;8.73;;;;;;;0.95;87.19;100263.97;5058112;28;20829;-71
2021/01/06 09:39:53;;;;;;;10.63;9.03;;;;;;;1.09;87.11;100265.88;5058527;28;20460;-71
2021/01/06 09:42:20;;;;;;;14.50;10.13;;;;;;;1.30;86.51;100263.91;5053659;28;20477;-70
2021/01/06 09:44:47;;;;;;;16.73;11.80;;;;;;;1.27;86.42;100262.28;5058850;28;21061;-71
2021/01/06 09:47:22;;;;;;;12.43;9.30;;;;;;;1.14;86.55;100263.84;5057459;28;20480;-70
2021/01/06 09:49:53;;;;;;;13.33;9.50;;;;;;;1.16;87.03;100263.78;5057862;28;20452;-69
2021/01/06 09:52:26;;;;;;;10.23;8.63;;;;;;;1.26;86.89;100260.56;5056379;28;20487;-69
2021/01/06 09:54:54;;;;;;;10.63;8.60;;;;;;;1.14;86.63;100255.97;5060155;28;20448;-67
2021/01/06 09:57:21;;;;;;;11.73;8.53;;;;;;;1.08;87.29;100262.41;5054728;28;20476;-70
2021/01/06 09:59:51;;;;;;;12.50;9.40;;;;;;;1.36;86.40;100263.59;5058596;28;20456;-70
2021/01/06 10:02:22;;;;;;;13.67;9.63;;;;;;;1.31;86.23;100260.34;5057379;28;20464;-69
2021/01/06 10:04:49;;;;;;;12.20;9.70;;;;;;;1.20;86.69;100254.78;5058330;28;20558;-69
2021/01/06 10:07:23;;;;;;;13.10;10.00;;;;;;;1.10;86.67;100249.16;5057935;28;20890;-71
2021/01/06 10:09:55;;;;;;;11.27;9.03;;;;;;;1.34;86.75;100256.69;5059077;28;20901;-70
2021/01/06 10:12:41;;;;;;;11.83;9.00;;;;;;;1.30;86.93;100245.47;5053441;28;20484;-70
2021/01/06 10:15:30;;;;;;;9.60;7.87;;;;;;;1.26;86.68;100249.19;5056079;28;20961;-71
2021/01/06 10:18:03;;;;;;;12.07;8.37;;;;;;;1.41;86.12;100242.28;5058531;28;20458;-71
2021/01/06 10:20:34;;;;;;;14.93;9.33;;;;;;;1.23;85.98;100244.97;5047946;28;20488;-70
2021/01/06 10:23:15;;;;;;;9.97;7.73;;;;;;;0.98;85.77;100247.16;5059609;28;20449;-70
2021/01/06 10:25:42;;;;;;;12.43;8.43;;;;;;;0.95;86.04;100242.91;5057182;28;20538;-67
2021/01/06 10:28:12;;;;;;;12.10;8.80;;;;;;;0.90;86.22;100232.63;5062932;28;20977;-70
2021/01/06 10:30:39;;;;;;;14.23;8.13;;;;;;;0.98;86.33;100232.22;5057861;28;20494;-70
2021/01/06 10:33:09;;;;;;;12.77;8.63;;;;;;;0.91;86.16;100238.72;5061732;28;20479;-70
2021/01/06 10:35:44;;;;;;;10.50;7.93;;;;;;;0.98;86.54;100234.84;5060972;28;20481;-70
2021/01/06 10:38:22;;;;;;;11.60;8.43;;;;;;;0.99;86.68;100231.28;5061839;28;20447;-71
2021/01/06 10:40:49;;;;;;;12.03;8.50;;;;;;;1.04;86.66;100228.41;5059049;28;20474;-71
2021/01/06 10:43:37;;;;;;;13.80;8.73;;;;;;;1.10;86.34;100215.78;5060944;28;20499;-71
2021/01/06 10:46:43;;;;;;;13.33;9.23;;;;;;;0.96;85.92;100209.56;5050122;28;20514;-71
2021/01/06 10:49:47;;;;;;;13.30;8.80;;;;;;;0.97;86.00;100219.13;5063033;28;20445;-71
2021/01/06 10:52:35;;;;;;;23.27;9.03;;;;;;;0.91;86.26;100213.25;5058921;28;20492;-71
2021/01/06 10:55:38;;;;;;;12.37;7.83;;;;;;;1.07;85.93;100212.44;5057345;28;20537;-70
2021/01/06 10:58:14;;;;;;;13.37;9.20;;;;;;;1.01;85.68;100212.75;5058525;28;20886;-69
2021/01/06 11:01:04;;;;;;;11.93;10.10;;;;;;;1.07;86.03;100202.75;5056917;28;20465;-68
2021/01/06 11:04:02;;;;;;;11.37;8.10;;;;;;;1.21;85.21;100209.09;5057815;28;20564;-70
2021/01/06 11:06:31;;;;;;;11.10;8.60;;;;;;;1.09;84.71;100198.28;5057815;28;20483;-70
2021/01/06 11:09:29;;;;;;;15.33;9.70;;;;;;;1.22;84.65;100203.75;5057340;28;20433;-69
2021/01/06 11:12:36;;;;;;;15.80;9.90;;;;;;;1.39;84.28;100202.84;5055540;28;20477;-67
2021/01/06 11:15:24;;;;;;;11.37;8.47;;;;;;;1.27;84.81;100201.72;5058485;28;20495;-71
2021/01/06 11:18:17;;;;;;;14.10;8.43;;;;;;;1.57;84.13;100205.41;5052339;28;20501;-67
2021/01/06 11:20:47;;;;;;;11.33;8.17;;;;;;;1.60;82.91;100197.34;5053744;28;20480;-68
2021/01/06 11:23:47;;;;;;;13.10;8.23;;;;;;;1.44;82.99;100192.91;5059027;28;20876;-69
2021/01/06 11:26:50;;;;;;;10.87;8.63;;;;;;;1.46;82.95;100191.03;5053809;28;21063;-68
2021/01/06 11:29:30;;;;;;;10.07;7.30;;;;;;;1.38;83.26;100185.31;5058126;28;20459;-70
2021/01/06 11:32:20;;;;;;;12.20;8.23;;;;;;;1.28;83.62;100184.13;5057136;28;20484;-69
2021/01/06 11:34:51;;;;;;;9.07;7.63;;;;;;;1.32;83.70;100180.41;5058987;28;20453;-69
2021/01/06 11:37:28;;;;;;;12.00;8.63;;;;;;;1.48;83.31;100181.25;5053777;28;20523;-68
2021/01/06 11:39:54;;;;;;;13.90;9.40;;;;;;;1.75;83.06;100167.47;5056565;28;20757;-67
2021/01/06 11:42:21;;;;;;;15.70;8.83;;;;;;;1.98;82.66;100170.59;5060446;28;20495;-68
2021/01/06 11:45:05;;;;;;;12.90;8.63;;;;;;;2.04;81.38;100167.59;5061870;28;20499;-69
2021/01/06 11:47:34;;;;;;;12.13;8.63;;;;;;;2.04;81.51;100163.19;5049460;28;20457;-69